Terminal Aerodrome Forecast
Issued by NWS Sterling, VA

Current Version | Previous Version | Text Only | Print | Product List | Glossary Off
Versions: 1 2 3 4 5 6 7 8 9 10 11 12 13 14 15 16 17 18 19 20 21 22 23 24 25

000
FTUS41 KLWX 190800 AAA
TAFDCA
TAF AMD
KDCA 190858Z 1909/2006 05005KT P6SM BKN020
     FM191400 08007KT P6SM BKN050
     FM200500 VRB03KT P6SM FEW050 SCT130=

USA.gov is the U.S. government's official web portal to all federal, state and local government web resources and services.